Terminal Aerodrome Forecast
Issued by NWS Medford, OR

Home | Current Version | Previous Version | Text Only | Print | Product List | Glossary On
Versions: 1 2 3 4 5 6 7 8 9 10 11 12 13 14 15 16 17 18 19 20
000
FTUS46 KMFR 010558
TAFMFR
TAF
KMFR 010558Z 0106/0206 VRB03KT P6SM SCT250
     FM010900 00000KT 5SM BR BKN180
     FM011200 VRB02KT 3SM BR FEW002 BKN090 OVC140
     FM011500 VRB03KT 6SM BR VCSH SCT015 BKN050 OVC090
     FM011800 VRB03KT P6SM -SHRA BKN040 OVC070
     FM020000 VRB03KT P6SM -SHRA BKN030 OVC050=

USA.gov is the U.S. government's official web portal to all federal, state and local government web resources and services.